sensor_id;sensor_type;location;lat;lon;timestamp;temperature;humidity
23813;DHT22;12087;45.190;5.688;2022-08-21T00:05:03;21.60;99.90
23813;DHT22;12087;45.190;5.688;2022-08-21T00:10:26;21.50;99.90
23813;DHT22;12087;45.190;5.688;2022-08-21T00:15:48;21.50;99.90
23813;DHT22;12087;45.190;5.688;2022-08-21T00:21:13;21.50;99.90
23813;DHT22;12087;45.190;5.688;2022-08-21T00:26:35;21.40;99.90
23813;DHT22;12087;45.190;5.688;2022-08-21T00:31:57;21.30;99.90
23813;DHT22;12087;45.190;5.688;2022-08-21T00:37:22;21.20;99.90
23813;DHT22;12087;45.190;5.688;2022-08-21T00:42:45;21.30;99.90
23813;DHT22;12087;45.190;5.688;2022-08-21T00:48:07;21.20;99.90
23813;DHT22;12087;45.190;5.688;2022-08-21T00:53:31;21.20;99.90
23813;DHT22;12087;45.190;5.688;2022-08-21T00:58:56;21.20;99.90
23813;DHT22;12087;45.190;5.688;2022-08-21T01:04:20;21.20;99.90
23813;DHT22;12087;45.190;5.688;2022-08-21T01:09:44;21.20;99.90
23813;DHT22;12087;45.190;5.688;2022-08-21T01:15:08;21.20;99.90
23813;DHT22;12087;45.190;5.688;2022-08-21T01:20:31;21.10;99.90
23813;DHT22;12087;45.190;5.688;2022-08-21T01:25:55;21.00;99.90
23813;DHT22;12087;45.190;5.688;2022-08-21T01:31:19;21.00;99.90
23813;DHT22;12087;45.190;5.688;2022-08-21T01:36:43;20.90;99.90
23813;DHT22;12087;45.190;5.688;2022-08-21T01:42:07;20.90;99.90
23813;DHT22;12087;45.190;5.688;2022-08-21T01:47:29;20.80;99.90
23813;DHT22;12087;45.190;5.688;2022-08-21T01:52:52;20.90;99.90
23813;DHT22;12087;45.190;5.688;2022-08-21T01:58:16;20.80;99.90
23813;DHT22;12087;45.190;5.688;2022-08-21T02:03:38;20.80;99.90
23813;DHT22;12087;45.190;5.688;2022-08-21T02:09:01;20.70;99.90
23813;DHT22;12087;45.190;5.688;2022-08-21T02:14:25;20.60;99.90
23813;DHT22;12087;45.190;5.688;2022-08-21T02:19:47;20.50;99.90
23813;DHT22;12087;45.190;5.688;2022-08-21T02:25:10;20.50;99.90
23813;DHT22;12087;45.190;5.688;2022-08-21T02:30:37;20.50;99.90
23813;DHT22;12087;45.190;5.688;2022-08-21T02:36:01;20.40;99.90
23813;DHT22;12087;45.190;5.688;2022-08-21T02:41:24;20.40;99.90
23813;DHT22;12087;45.190;5.688;2022-08-21T02:46:47;20.30;99.90
23813;DHT22;12087;45.190;5.688;2022-08-21T02:52:10;20.30;99.90
23813;DHT22;12087;45.190;5.688;2022-08-21T02:57:32;20.20;99.90
23813;DHT22;12087;45.190;5.688;2022-08-21T03:02:56;20.20;99.90
23813;DHT22;12087;45.190;5.688;2022-08-21T03:08:20;20.10;99.90
23813;DHT22;12087;45.190;5.688;2022-08-21T03:13:42;20.00;99.90
23813;DHT22;12087;45.190;5.688;2022-08-21T03:19:06;20.00;99.90
23813;DHT22;12087;45.190;5.688;2022-08-21T03:24:28;19.90;99.90
23813;DHT22;12087;45.190;5.688;2022-08-21T03:29:50;19.90;99.90
23813;DHT22;12087;45.190;5.688;2022-08-21T03:35:14;19.80;99.90
23813;DHT22;12087;45.190;5.688;2022-08-21T03:40:37;19.70;99.90
23813;DHT22;12087;45.190;5.688;2022-08-21T03:46:00;19.70;99.90
23813;DHT22;12087;45.190;5.688;2022-08-21T03:51:25;19.80;99.90
23813;DHT22;12087;45.190;5.688;2022-08-21T03:56:47;19.70;99.90
23813;DHT22;12087;45.190;5.688;2022-08-21T04:02:11;19.80;99.90
23813;DHT22;12087;45.190;5.688;2022-08-21T04:07:35;19.70;99.90
23813;DHT22;12087;45.190;5.688;2022-08-21T04:12:58;19.70;99.90
23813;DHT22;12087;45.190;5.688;2022-08-21T04:18:20;19.70;99.90
23813;DHT22;12087;45.190;5.688;2022-08-21T04:23:44;19.70;99.90
23813;DHT22;12087;45.190;5.688;2022-08-21T04:29:06;19.70;99.90
23813;DHT22;12087;45.190;5.688;2022-08-21T04:34:28;19.70;99.90
23813;DHT22;12087;45.190;5.688;2022-08-21T04:39:52;19.60;99.90
23813;DHT22;12087;45.190;5.688;2022-08-21T04:45:19;19.60;99.90
23813;DHT22;12087;45.190;5.688;2022-08-21T04:50:45;19.60;99.90
23813;DHT22;12087;45.190;5.688;2022-08-21T04:56:13;19.60;99.90
23813;DHT22;12087;45.190;5.688;2022-08-21T05:01:37;19.60;99.90
23813;DHT22;12087;45.190;5.688;2022-08-21T05:07:02;19.50;99.90
23813;DHT22;12087;45.190;5.688;2022-08-21T05:12:28;19.50;99.90
23813;DHT22;12087;45.190;5.688;2022-08-21T05:17:50;19.50;99.90
23813;DHT22;12087;45.190;5.688;2022-08-21T05:23:13;19.50;99.90
23813;DHT22;12087;45.190;5.688;2022-08-21T05:28:37;19.50;99.90
23813;DHT22;12087;45.190;5.688;2022-08-21T05:34:00;19.50;99.90
23813;DHT22;12087;45.190;5.688;2022-08-21T05:39:22;19.50;99.90
23813;DHT22;12087;45.190;5.688;2022-08-21T05:44:45;19.40;99.90
23813;DHT22;12087;45.190;5.688;2022-08-21T05:50:08;19.40;99.90
23813;DHT22;12087;45.190;5.688;2022-08-21T05:55:30;19.40;99.90
23813;DHT22;12087;45.190;5.688;2022-08-21T06:00:54;19.50;99.90
23813;DHT22;12087;45.190;5.688;2022-08-21T06:06:16;19.50;99.90
23813;DHT22;12087;45.190;5.688;2022-08-21T06:11:38;19.50;99.90
23813;DHT22;12087;45.190;5.688;2022-08-21T06:17:03;19.50;99.90
23813;DHT22;12087;45.190;5.688;2022-08-21T06:22:26;19.50;99.90
23813;DHT22;12087;45.190;5.688;2022-08-21T06:27:49;19.60;99.90
23813;DHT22;12087;45.190;5.688;2022-08-21T06:33:13;19.60;99.90
23813;DHT22;12087;45.190;5.688;2022-08-21T06:38:35;19.70;99.90
23813;DHT22;12087;45.190;5.688;2022-08-21T06:43:58;19.90;99.90
23813;DHT22;12087;45.190;5.688;2022-08-21T06:49:22;19.90;99.90
23813;DHT22;12087;45.190;5.688;2022-08-21T06:54:44;19.90;99.90
23813;DHT22;12087;45.190;5.688;2022-08-21T07:00:07;19.90;99.90
23813;DHT22;12087;45.190;5.688;2022-08-21T07:05:32;20.00;99.90
23813;DHT22;12087;45.190;5.688;2022-08-21T07:10:57;20.10;99.90
23813;DHT22;12087;45.190;5.688;2022-08-21T07:16:20;20.20;99.90
23813;DHT22;12087;45.190;5.688;2022-08-21T07:21:44;20.20;99.90
23813;DHT22;12087;45.190;5.688;2022-08-21T07:27:06;20.30;99.90
23813;DHT22;12087;45.190;5.688;2022-08-21T07:32:28;20.40;99.90
23813;DHT22;12087;45.190;5.688;2022-08-21T07:37:52;20.50;99.90
23813;DHT22;12087;45.190;5.688;2022-08-21T07:43:14;20.60;99.90
23813;DHT22;12087;45.190;5.688;2022-08-21T07:48:38;20.70;99.90
23813;DHT22;12087;45.190;5.688;2022-08-21T07:54:04;20.80;99.90
23813;DHT22;12087;45.190;5.688;2022-08-21T07:59:26;20.90;99.90
23813;DHT22;12087;45.190;5.688;2022-08-21T08:04:48;21.10;99.90
23813;DHT22;12087;45.190;5.688;2022-08-21T08:10:12;21.20;99.90
23813;DHT22;12087;45.190;5.688;2022-08-21T08:15:36;21.60;99.90
23813;DHT22;12087;45.190;5.688;2022-08-21T08:20:58;21.90;99.90
23813;DHT22;12087;45.190;5.688;2022-08-21T08:26:22;22.30;99.90
23813;DHT22;12087;45.190;5.688;2022-08-21T08:31:44;22.50;99.90
23813;DHT22;12087;45.190;5.688;2022-08-21T08:37:08;22.80;99.90
23813;DHT22;12087;45.190;5.688;2022-08-21T08:42:37;23.00;99.90
23813;DHT22;12087;45.190;5.688;2022-08-21T08:48:03;23.20;99.90
23813;DHT22;12087;45.190;5.688;2022-08-21T08:53:32;23.30;99.90
23813;DHT22;12087;45.190;5.688;2022-08-21T08:59:00;23.40;99.90
23813;DHT22;12087;45.190;5.688;2022-08-21T09:04:25;23.40;99.90
23813;DHT22;12087;45.190;5.688;2022-08-21T09:10:01;23.30;99.90
23813;DHT22;12087;45.190;5.688;2022-08-21T09:15:32;23.50;99.90
23813;DHT22;12087;45.190;5.688;2022-08-21T09:21:07;23.70;99.90
23813;DHT22;12087;45.190;5.688;2022-08-21T09:26:40;23.70;99.90
23813;DHT22;12087;45.190;5.688;2022-08-21T09:32:11;23.70;99.90
23813;DHT22;12087;45.190;5.688;2022-08-21T09:37:49;23.80;99.90
23813;DHT22;12087;45.190;5.688;2022-08-21T09:43:18;23.90;99.90
23813;DHT22;12087;45.190;5.688;2022-08-21T09:48:45;24.00;99.90
23813;DHT22;12087;45.190;5.688;2022-08-21T09:54:16;24.20;99.90
23813;DHT22;12087;45.190;5.688;2022-08-21T09:59:41;24.50;99.90
23813;DHT22;12087;45.190;5.688;2022-08-21T10:05:16;24.60;99.90
23813;DHT22;12087;45.190;5.688;2022-08-21T10:10:39;25.10;99.90
23813;DHT22;12087;45.190;5.688;2022-08-21T10:16:11;25.10;99.90
23813;DHT22;12087;45.190;5.688;2022-08-21T10:21:40;25.40;99.90
23813;DHT22;12087;45.190;5.688;2022-08-21T10:27:14;25.70;99.90
23813;DHT22;12087;45.190;5.688;2022-08-21T10:33:02;25.90;99.90
23813;DHT22;12087;45.190;5.688;2022-08-21T10:44:31;26.30;99.90
23813;DHT22;12087;45.190;5.688;2022-08-21T10:50:03;26.40;99.90
23813;DHT22;12087;45.190;5.688;2022-08-21T10:55:35;26.60;99.90
23813;DHT22;12087;45.190;5.688;2022-08-21T11:01:03;27.00;99.90
23813;DHT22;12087;45.190;5.688;2022-08-21T11:06:31;27.20;99.90
23813;DHT22;12087;45.190;5.688;2022-08-21T11:11:58;27.40;99.90
23813;DHT22;12087;45.190;5.688;2022-08-21T11:17:28;27.70;99.90
23813;DHT22;12087;45.190;5.688;2022-08-21T11:22:53;27.90;99.80
23813;DHT22;12087;45.190;5.688;2022-08-21T11:28:22;28.20;99.90
23813;DHT22;12087;45.190;5.688;2022-08-21T11:33:56;28.40;97.30
23813;DHT22;12087;45.190;5.688;2022-08-21T11:39:25;28.50;97.90
23813;DHT22;12087;45.190;5.688;2022-08-21T11:45:02;28.70;96.80
23813;DHT22;12087;45.190;5.688;2022-08-21T11:50:29;28.50;96.90
23813;DHT22;12087;45.190;5.688;2022-08-21T11:55:56;28.60;96.40
23813;DHT22;12087;45.190;5.688;2022-08-21T12:01:24;28.60;94.70
23813;DHT22;12087;45.190;5.688;2022-08-21T12:06:47;28.40;95.60
23813;DHT22;12087;45.190;5.688;2022-08-21T12:12:11;28.50;95.00
23813;DHT22;12087;45.190;5.688;2022-08-21T12:17:38;28.50;94.60
23813;DHT22;12087;45.190;5.688;2022-08-21T12:23:12;28.80;93.50
23813;DHT22;12087;45.190;5.688;2022-08-21T12:28:36;28.80;93.60
23813;DHT22;12087;45.190;5.688;2022-08-21T12:34:03;28.90;92.70
23813;DHT22;12087;45.190;5.688;2022-08-21T12:39:30;28.90;93.60
23813;DHT22;12087;45.190;5.688;2022-08-21T12:44:55;29.10;92.80
23813;DHT22;12087;45.190;5.688;2022-08-21T12:50:26;29.10;92.60
23813;DHT22;12087;45.190;5.688;2022-08-21T12:55:50;29.00;93.00
23813;DHT22;12087;45.190;5.688;2022-08-21T13:01:18;28.90;91.90
23813;DHT22;12087;45.190;5.688;2022-08-21T13:06:45;28.80;91.50
23813;DHT22;12087;45.190;5.688;2022-08-21T13:12:08;28.90;91.90
23813;DHT22;12087;45.190;5.688;2022-08-21T13:17:34;29.30;91.40
23813;DHT22;12087;45.190;5.688;2022-08-21T13:23:00;29.70;88.70
23813;DHT22;12087;45.190;5.688;2022-08-21T13:28:22;29.70;89.50
23813;DHT22;12087;45.190;5.688;2022-08-21T13:33:45;29.50;87.20
23813;DHT22;12087;45.190;5.688;2022-08-21T13:39:12;29.00;87.80
23813;DHT22;12087;45.190;5.688;2022-08-21T13:44:35;28.80;89.30
23813;DHT22;12087;45.190;5.688;2022-08-21T13:49:59;28.80;87.20
23813;DHT22;12087;45.190;5.688;2022-08-21T13:55:24;28.80;88.00
23813;DHT22;12087;45.190;5.688;2022-08-21T14:00:48;29.10;88.30
23813;DHT22;12087;45.190;5.688;2022-08-21T14:06:12;29.40;85.80
23813;DHT22;12087;45.190;5.688;2022-08-21T14:11:37;29.20;84.70
23813;DHT22;12087;45.190;5.688;2022-08-21T14:17:03;29.00;86.00
23813;DHT22;12087;45.190;5.688;2022-08-21T14:22:31;28.90;86.10
23813;DHT22;12087;45.190;5.688;2022-08-21T14:27:57;28.60;86.80
23813;DHT22;12087;45.190;5.688;2022-08-21T14:33:25;28.50;83.20
23813;DHT22;12087;45.190;5.688;2022-08-21T14:38:48;28.30;84.60
23813;DHT22;12087;45.190;5.688;2022-08-21T14:44:11;28.20;85.40
23813;DHT22;12087;45.190;5.688;2022-08-21T14:49:34;28.00;85.30
23813;DHT22;12087;45.190;5.688;2022-08-21T14:54:56;27.90;85.30
23813;DHT22;12087;45.190;5.688;2022-08-21T15:00:23;27.80;85.20
23813;DHT22;12087;45.190;5.688;2022-08-21T15:05:46;27.90;85.70
23813;DHT22;12087;45.190;5.688;2022-08-21T15:11:19;27.80;85.60
23813;DHT22;12087;45.190;5.688;2022-08-21T15:16:43;27.90;83.90
23813;DHT22;12087;45.190;5.688;2022-08-21T15:22:06;27.70;84.70
23813;DHT22;12087;45.190;5.688;2022-08-21T15:27:29;27.70;85.20
23813;DHT22;12087;45.190;5.688;2022-08-21T15:32:53;27.40;84.90
23813;DHT22;12087;45.190;5.688;2022-08-21T15:38:15;27.30;85.90
23813;DHT22;12087;45.190;5.688;2022-08-21T15:43:42;27.10;85.00
23813;DHT22;12087;45.190;5.688;2022-08-21T15:49:07;26.90;84.30
23813;DHT22;12087;45.190;5.688;2022-08-21T15:54:30;26.80;84.90
23813;DHT22;12087;45.190;5.688;2022-08-21T15:59:55;26.70;85.30
23813;DHT22;12087;45.190;5.688;2022-08-21T16:05:20;26.70;85.00
23813;DHT22;12087;45.190;5.688;2022-08-21T16:10:42;26.60;84.30
23813;DHT22;12087;45.190;5.688;2022-08-21T16:16:05;26.60;85.80
23813;DHT22;12087;45.190;5.688;2022-08-21T16:21:29;26.50;84.10
23813;DHT22;12087;45.190;5.688;2022-08-21T16:26:51;26.40;83.80
23813;DHT22;12087;45.190;5.688;2022-08-21T16:32:14;26.30;85.90
23813;DHT22;12087;45.190;5.688;2022-08-21T16:37:39;26.20;86.00
23813;DHT22;12087;45.190;5.688;2022-08-21T16:43:01;26.10;86.00
23813;DHT22;12087;45.190;5.688;2022-08-21T16:48:23;26.00;86.30
23813;DHT22;12087;45.190;5.688;2022-08-21T16:53:47;26.00;83.20
23813;DHT22;12087;45.190;5.688;2022-08-21T16:59:10;25.90;82.60
23813;DHT22;12087;45.190;5.688;2022-08-21T17:04:33;25.80;82.30
23813;DHT22;12087;45.190;5.688;2022-08-21T17:09:57;25.70;80.80
23813;DHT22;12087;45.190;5.688;2022-08-21T17:15:22;25.60;79.90
23813;DHT22;12087;45.190;5.688;2022-08-21T17:20:45;25.50;79.50
23813;DHT22;12087;45.190;5.688;2022-08-21T17:26:09;25.40;80.80
23813;DHT22;12087;45.190;5.688;2022-08-21T17:31:32;25.40;79.40
23813;DHT22;12087;45.190;5.688;2022-08-21T17:36:54;25.30;77.10
23813;DHT22;12087;45.190;5.688;2022-08-21T17:42:18;25.20;78.50
23813;DHT22;12087;45.190;5.688;2022-08-21T17:47:42;25.10;77.80
23813;DHT22;12087;45.190;5.688;2022-08-21T17:53:04;25.10;78.00
23813;DHT22;12087;45.190;5.688;2022-08-21T17:58:28;25.00;77.50
23813;DHT22;12087;45.190;5.688;2022-08-21T18:03:51;25.00;77.30
23813;DHT22;12087;45.190;5.688;2022-08-21T18:09:13;24.90;77.00
23813;DHT22;12087;45.190;5.688;2022-08-21T18:14:38;24.90;78.80
23813;DHT22;12087;45.190;5.688;2022-08-21T18:20:01;24.80;78.70
23813;DHT22;12087;45.190;5.688;2022-08-21T18:25:24;24.70;76.70
23813;DHT22;12087;45.190;5.688;2022-08-21T18:30:50;24.70;79.70
23813;DHT22;12087;45.190;5.688;2022-08-21T18:36:14;24.60;78.30
23813;DHT22;12087;45.190;5.688;2022-08-21T18:41:36;24.50;79.60
23813;DHT22;12087;45.190;5.688;2022-08-21T18:47:05;24.40;78.20
23813;DHT22;12087;45.190;5.688;2022-08-21T18:52:27;24.40;79.50
23813;DHT22;12087;45.190;5.688;2022-08-21T18:57:50;24.30;78.60
23813;DHT22;12087;45.190;5.688;2022-08-21T19:03:17;24.20;79.30
23813;DHT22;12087;45.190;5.688;2022-08-21T19:08:39;24.20;82.00
23813;DHT22;12087;45.190;5.688;2022-08-21T19:14:03;24.10;79.50
23813;DHT22;12087;45.190;5.688;2022-08-21T19:19:27;24.00;79.20
23813;DHT22;12087;45.190;5.688;2022-08-21T19:24:49;24.00;79.80
23813;DHT22;12087;45.190;5.688;2022-08-21T19:30:12;24.00;80.40
23813;DHT22;12087;45.190;5.688;2022-08-21T19:35:36;23.90;82.90
23813;DHT22;12087;45.190;5.688;2022-08-21T19:40:58;23.80;82.20
23813;DHT22;12087;45.190;5.688;2022-08-21T19:46:24;23.80;81.80
23813;DHT22;12087;45.190;5.688;2022-08-21T19:51:49;23.70;82.60
23813;DHT22;12087;45.190;5.688;2022-08-21T19:57:11;23.60;82.50
23813;DHT22;12087;45.190;5.688;2022-08-21T20:02:33;23.60;82.70
23813;DHT22;12087;45.190;5.688;2022-08-21T20:07:58;23.50;80.70
23813;DHT22;12087;45.190;5.688;2022-08-21T20:13:39;23.50;81.40
23813;DHT22;12087;45.190;5.688;2022-08-21T20:19:05;23.50;83.40
23813;DHT22;12087;45.190;5.688;2022-08-21T20:24:29;23.40;85.10
23813;DHT22;12087;45.190;5.688;2022-08-21T20:29:52;23.30;85.60
23813;DHT22;12087;45.190;5.688;2022-08-21T20:35:15;23.20;85.50
23813;DHT22;12087;45.190;5.688;2022-08-21T20:40:40;23.10;86.20
23813;DHT22;12087;45.190;5.688;2022-08-21T20:46:03;23.10;86.10
23813;DHT22;12087;45.190;5.688;2022-08-21T20:51:30;23.00;86.60
23813;DHT22;12087;45.190;5.688;2022-08-21T20:57:00;23.00;85.20
23813;DHT22;12087;45.190;5.688;2022-08-21T21:02:41;23.00;84.90
23813;DHT22;12087;45.190;5.688;2022-08-21T21:08:07;23.00;84.90
23813;DHT22;12087;45.190;5.688;2022-08-21T21:13:34;23.00;84.80
23813;DHT22;12087;45.190;5.688;2022-08-21T21:18:59;22.90;85.60
23813;DHT22;12087;45.190;5.688;2022-08-21T21:24:30;22.70;87.40
23813;DHT22;12087;45.190;5.688;2022-08-21T21:30:00;22.70;88.40
23813;DHT22;12087;45.190;5.688;2022-08-21T21:35:28;22.60;87.40
23813;DHT22;12087;45.190;5.688;2022-08-21T21:41:02;22.60;88.20
23813;DHT22;12087;45.190;5.688;2022-08-21T21:46:37;22.50;88.10
23813;DHT22;12087;45.190;5.688;2022-08-21T21:52:12;22.50;88.10
23813;DHT22;12087;45.190;5.688;2022-08-21T22:03:50;22.40;89.60
23813;DHT22;12087;45.190;5.688;2022-08-21T22:15:17;22.30;89.60
23813;DHT22;12087;45.190;5.688;2022-08-21T22:20:47;22.30;90.00
23813;DHT22;12087;45.190;5.688;2022-08-21T22:26:24;22.20;90.40
23813;DHT22;12087;45.190;5.688;2022-08-21T22:32:04;22.10;90.70
23813;DHT22;12087;45.190;5.688;2022-08-21T22:37:35;22.00;90.90
23813;DHT22;12087;45.190;5.688;2022-08-21T22:42:58;21.90;91.10
23813;DHT22;12087;45.190;5.688;2022-08-21T22:48:21;21.90;91.10
23813;DHT22;12087;45.190;5.688;2022-08-21T22:53:52;21.80;91.50
23813;DHT22;12087;45.190;5.688;2022-08-21T22:59:24;21.70;91.90
23813;DHT22;12087;45.190;5.688;2022-08-21T23:04:49;21.70;92.10
23813;DHT22;12087;45.190;5.688;2022-08-21T23:10:19;21.60;92.20
23813;DHT22;12087;45.190;5.688;2022-08-21T23:15:43;21.60;92.40
23813;DHT22;12087;45.190;5.688;2022-08-21T23:21:11;21.60;92.10
23813;DHT22;12087;45.190;5.688;2022-08-21T23:26:43;21.50;92.40
23813;DHT22;12087;45.190;5.688;2022-08-21T23:32:21;21.50;93.00
23813;DHT22;12087;45.190;5.688;2022-08-21T23:37:50;21.40;93.40
23813;DHT22;12087;45.190;5.688;2022-08-21T23:43:29;21.40;93.80
23813;DHT22;12087;45.190;5.688;2022-08-21T23:49:15;21.30;94.00
23813;DHT22;12087;45.190;5.688;2022-08-21T23:54:50;21.30;94.10
